createdAt,value
2022-11-05T00:01:09.127Z,16.07
2022-11-05T00:03:55.035Z,12.53
2022-11-05T00:06:40.943Z,11.87
2022-11-05T00:09:29.750Z,12.03
2022-11-05T00:12:17.397Z,10.97
2022-11-05T00:15:03.355Z,11.67
2022-11-05T00:17:31.862Z,9.90
2022-11-05T00:20:00.414Z,12.90
2022-11-05T00:22:46.740Z,11.33
2022-11-05T00:25:16.769Z,10.60
2022-11-05T00:27:50.277Z,10.60
2022-11-05T00:30:23.220Z,9.73
2022-11-05T00:32:53.031Z,14.37
2022-11-05T00:35:26.258Z,12.03
2022-11-05T00:37:57.441Z,8.87
2022-11-05T00:40:25.909Z,8.67
2022-11-05T00:43:13.640Z,14.33
2022-11-05T00:45:42.209Z,16.30
2022-11-05T00:48:36.298Z,15.53
2022-11-05T00:51:06.767Z,11.43
2022-11-05T00:53:35.273Z,9.60
2022-11-05T00:56:12.309Z,8.83
2022-11-05T00:58:40.851Z,13.03
2022-11-05T01:01:09.613Z,11.53
2022-11-05T01:03:40.433Z,12.30
2022-11-05T01:06:18.043Z,10.20
2022-11-05T01:08:47.655Z,9.63
2022-11-05T01:11:39.424Z,10.20
2022-11-05T01:14:17.106Z,13.77
2022-11-05T01:16:48.151Z,10.90
2022-11-05T01:19:16.600Z,10.97
2022-11-05T01:21:47.254Z,9.53
2022-11-05T01:24:15.636Z,12.17
2022-11-05T01:26:44.021Z,14.67
2022-11-05T01:29:15.192Z,13.80
2022-11-05T01:31:46.050Z,11.60
2022-11-05T01:34:14.654Z,13.23
2022-11-05T01:36:43.358Z,9.67
2022-11-05T01:39:11.767Z,12.30
2022-11-05T01:45:51.474Z,13.03
2022-11-05T01:48:32.143Z,10.90
2022-11-05T01:51:20.496Z,12.40
2022-11-05T01:54:08.232Z,14.27
2022-11-05T01:56:42.446Z,11.43
2022-11-05T01:59:22.875Z,11.53
2022-11-05T02:01:52.719Z,11.97
2022-11-05T02:04:32.204Z,13.73
2022-11-05T02:07:01.330Z,11.47
2022-11-05T02:09:40.648Z,14.47
2022-11-05T02:12:10.608Z,14.37
2022-11-05T02:14:41.424Z,13.47
2022-11-05T02:17:20.727Z,15.00
2022-11-05T02:20:10.572Z,12.53
2022-11-05T02:23:19.070Z,11.77
2022-11-05T02:26:08.058Z,14.23
2022-11-05T02:29:14.839Z,11.50
2022-11-05T02:32:03.900Z,13.00
2022-11-05T02:35:24.466Z,11.47
2022-11-05T02:37:53.426Z,11.93
2022-11-05T02:40:38.023Z,13.10
2022-11-05T02:43:16.391Z,12.97
2022-11-05T02:45:57.617Z,15.73
2022-11-05T02:48:51.131Z,18.40
2022-11-05T02:51:40.913Z,12.70
2022-11-05T02:54:11.798Z,13.33
2022-11-05T02:56:46.231Z,13.03
2022-11-05T02:59:14.170Z,13.97
2022-11-05T03:01:45.148Z,12.83
2022-11-05T03:04:17.740Z,11.80
2022-11-05T03:07:45.110Z,13.17
2022-11-05T03:10:44.450Z,13.93
2022-11-05T03:13:29.826Z,16.97
2022-11-05T03:16:11.830Z,18.10
2022-11-05T03:19:01.713Z,14.43
2022-11-05T03:21:57.327Z,12.87
2022-11-05T03:24:32.901Z,12.73
2022-11-05T03:27:26.439Z,16.70
2022-11-05T03:30:10.732Z,16.33
2022-11-05T03:32:44.272Z,13.47
2022-11-05T03:35:20.161Z,11.77
2022-11-05T03:37:52.347Z,13.60
2022-11-05T03:40:24.011Z,13.90
2022-11-05T03:42:56.534Z,14.53
2022-11-05T03:45:34.197Z,13.60
2022-11-05T03:48:04.571Z,14.10
2022-11-05T03:51:06.289Z,12.20
2022-11-05T03:53:46.970Z,12.43
2022-11-05T03:56:53.228Z,14.43
2022-11-05T03:59:22.302Z,12.00
2022-11-05T04:01:51.415Z,10.60
2022-11-05T04:04:19.839Z,11.03
2022-11-05T04:07:05.768Z,10.90
2022-11-05T04:09:51.819Z,11.83
2022-11-05T04:12:37.433Z,12.77
2022-11-05T04:15:06.069Z,13.57
2022-11-05T04:17:33.420Z,12.93
2022-11-05T04:20:19.294Z,11.40
2022-11-05T04:23:04.429Z,12.53
2022-11-05T04:25:32.820Z,10.27
2022-11-05T04:28:01.698Z,9.70
2022-11-05T04:30:28.689Z,10.97
2022-11-05T04:33:14.003Z,13.67
2022-11-05T04:35:50.127Z,11.13
2022-11-05T04:38:20.546Z,10.90
2022-11-05T04:40:49.199Z,14.17
2022-11-05T04:43:20.063Z,10.83
2022-11-05T04:45:48.579Z,13.97
2022-11-05T04:48:16.885Z,13.90
2022-11-05T04:50:44.830Z,15.20
2022-11-05T04:53:13.399Z,10.93
2022-11-05T04:55:41.583Z,12.47
2022-11-05T04:58:10.693Z,11.07
2022-11-05T05:00:38.656Z,13.37
2022-11-05T05:03:07.130Z,12.53
2022-11-05T05:05:35.581Z,11.93
2022-11-05T05:08:07.315Z,10.30
2022-11-05T05:10:35.650Z,11.30
2022-11-05T05:13:04.112Z,9.60
2022-11-05T05:15:32.834Z,11.20
2022-11-05T05:18:01.133Z,11.93
2022-11-05T05:20:47.049Z,11.03
2022-11-05T05:23:15.265Z,11.17
2022-11-05T05:25:43.308Z,11.50
2022-11-05T05:28:11.832Z,15.47
2022-11-05T05:30:40.309Z,11.77
2022-11-05T05:33:08.577Z,11.60
2022-11-05T05:35:37.230Z,9.43
2022-11-05T05:38:05.577Z,12.33
2022-11-05T05:40:34.126Z,11.23
2022-11-05T05:43:02.276Z,12.60
2022-11-05T05:45:30.684Z,11.90
2022-11-05T05:47:59.256Z,11.13
2022-11-05T05:50:27.949Z,16.60
2022-11-05T05:52:56.464Z,8.40
2022-11-05T05:55:25.093Z,10.57
2022-11-05T05:57:53.538Z,10.13
2022-11-05T06:00:22.110Z,8.73
2022-11-05T06:02:50.564Z,12.43
2022-11-05T06:05:18.659Z,9.80
2022-11-05T06:07:46.740Z,11.50
2022-11-05T06:10:15.600Z,9.53
2022-11-05T06:12:44.315Z,12.03
2022-11-05T06:15:12.927Z,9.60
2022-11-05T06:17:41.358Z,9.13
2022-11-05T06:20:10.441Z,12.40
2022-11-05T06:22:38.793Z,9.43
2022-11-05T06:25:08.871Z,11.43
2022-11-05T06:27:37.410Z,9.77
2022-11-05T06:30:06.731Z,12.50
2022-11-05T06:32:35.287Z,10.37
2022-11-05T06:35:03.716Z,9.00
2022-11-05T06:37:34.491Z,9.07
2022-11-05T06:40:02.889Z,9.40
2022-11-05T06:42:31.279Z,12.07
2022-11-05T06:44:59.718Z,10.57
2022-11-05T06:47:28.717Z,10.17
2022-11-05T06:49:58.088Z,7.90
2022-11-05T06:52:27.351Z,12.33
2022-11-05T06:54:55.695Z,9.53
2022-11-05T06:57:24.318Z,11.20
2022-11-05T06:59:58.728Z,10.73
2022-11-05T07:02:29.276Z,11.47
2022-11-05T07:04:57.615Z,9.77
2022-11-05T07:07:25.690Z,12.43
2022-11-05T07:09:54.356Z,13.43
2022-11-05T07:12:22.775Z,10.93
2022-11-05T07:14:51.283Z,11.37
2022-11-05T07:17:20.175Z,9.20
2022-11-05T07:19:48.673Z,12.50
2022-11-05T07:22:16.841Z,13.27
2022-11-05T07:24:47.276Z,8.73
2022-11-05T07:27:15.579Z,10.63
2022-11-05T07:29:44.184Z,9.63
2022-11-05T07:32:12.573Z,11.67
2022-11-05T07:34:41.230Z,11.63
2022-11-05T07:37:09.558Z,12.60
2022-11-05T07:39:38.451Z,14.37
2022-11-05T07:42:07.043Z,10.43
2022-11-05T07:44:35.389Z,15.67
2022-11-05T07:47:03.969Z,14.47
2022-11-05T07:49:32.306Z,15.00
2022-11-05T07:52:00.686Z,17.23
2022-11-05T07:54:28.648Z,13.90
2022-11-05T07:56:57.212Z,15.07
2022-11-05T07:59:25.532Z,15.93
2022-11-05T08:01:54.388Z,13.73
2022-11-05T08:04:22.628Z,17.80
2022-11-05T08:06:51.428Z,14.63
2022-11-05T08:09:19.444Z,14.37
2022-11-05T08:11:47.901Z,16.50
2022-11-05T08:14:16.311Z,17.07
2022-11-05T08:16:44.665Z,14.50
2022-11-05T08:19:15.151Z,13.87
2022-11-05T08:21:43.678Z,15.73
2022-11-05T08:24:12.396Z,13.00
2022-11-05T08:26:41.094Z,14.10
2022-11-05T08:29:09.387Z,12.57
2022-11-05T08:31:38.266Z,12.63
2022-11-05T08:34:06.714Z,15.30
2022-11-05T08:36:36.710Z,15.67
2022-11-05T08:39:05.174Z,10.60
2022-11-05T08:41:33.528Z,10.43
2022-11-05T08:44:02.070Z,12.83
2022-11-05T08:46:30.644Z,14.20
2022-11-05T08:48:59.291Z,12.03
2022-11-05T08:51:27.697Z,11.67
2022-11-05T08:53:56.239Z,13.97
2022-11-05T08:56:24.304Z,10.53
2022-11-05T08:58:52.443Z,12.37
2022-11-05T09:01:20.938Z,10.20
2022-11-05T09:03:52.593Z,10.67
2022-11-05T09:06:21.367Z,14.33
2022-11-05T09:08:50.077Z,15.20
2022-11-05T09:11:18.441Z,11.83
2022-11-05T09:13:46.865Z,8.63
2022-11-05T09:16:25.187Z,8.80
2022-11-05T09:18:53.567Z,11.30
2022-11-05T09:21:21.716Z,13.07
2022-11-05T09:23:50.167Z,9.40
2022-11-05T09:26:18.549Z,9.63
2022-11-05T09:28:46.911Z,10.77
2022-11-05T09:31:15.348Z,10.23
2022-11-05T09:33:43.770Z,8.07
2022-11-05T09:36:11.970Z,11.03
2022-11-05T09:38:40.330Z,9.53
2022-11-05T09:41:56.563Z,9.47
2022-11-05T09:44:45.407Z,8.10
2022-11-05T09:47:20.344Z,7.83
2022-11-05T09:49:52.789Z,9.83
2022-11-05T09:52:30.933Z,7.80
2022-11-05T09:54:59.647Z,11.93
2022-11-05T09:57:43.130Z,10.93
2022-11-05T10:00:16.995Z,8.13
2022-11-05T10:03:04.708Z,10.73
2022-11-05T10:05:35.256Z,7.43
2022-11-05T10:08:14.910Z,12.63
2022-11-05T10:10:52.385Z,9.27
2022-11-05T10:13:23.602Z,10.73
2022-11-05T10:15:56.565Z,9.20
2022-11-05T10:18:38.343Z,10.67
2022-11-05T10:21:07.790Z,10.30
2022-11-05T10:23:36.442Z,14.83
2022-11-05T10:26:12.865Z,9.37
2022-11-05T10:28:41.297Z,13.13
2022-11-05T10:31:21.852Z,12.17
2022-11-05T10:33:56.739Z,10.27
2022-11-05T10:36:30.019Z,8.43
2022-11-05T10:39:16.079Z,16.57
2022-11-05T10:42:05.061Z,9.30
2022-11-05T10:44:35.048Z,12.17
2022-11-05T10:47:44.400Z,7.83
2022-11-05T10:50:21.960Z,7.20
2022-11-05T10:52:58.588Z,7.53
2022-11-05T10:55:58.456Z,5.17
2022-11-05T10:58:35.447Z,8.80
2022-11-05T11:01:10.200Z,7.40
2022-11-05T11:04:15.164Z,7.97
2022-11-05T11:06:50.759Z,13.07
2022-11-05T11:09:37.727Z,13.07
2022-11-05T11:12:15.478Z,5.00
2022-11-05T11:14:44.286Z,4.73
2022-11-05T11:17:33.725Z,6.77
2022-11-05T11:20:25.142Z,7.73
2022-11-05T11:23:18.496Z,7.73
2022-11-05T11:25:53.863Z,7.57
2022-11-05T11:28:27.495Z,10.73
2022-11-05T11:31:14.037Z,10.00
2022-11-05T11:33:47.195Z,7.27
2022-11-05T11:36:20.896Z,5.20
2022-11-05T11:38:49.484Z,6.13
2022-11-05T11:41:38.488Z,7.77
2022-11-05T11:44:24.555Z,5.60
2022-11-05T11:46:57.836Z,5.90
2022-11-05T11:49:47.511Z,3.87
2022-11-05T11:52:19.526Z,3.63
2022-11-05T11:54:47.931Z,4.80
2022-11-05T11:57:26.415Z,5.17
2022-11-05T12:00:12.889Z,4.27
2022-11-05T12:03:18.656Z,5.67
2022-11-05T12:06:26.675Z,5.33
2022-11-05T12:09:13.211Z,8.83
2022-11-05T12:11:55.690Z,21.80
2022-11-05T12:15:02.726Z,16.27
2022-11-05T12:18:24.545Z,8.20
2022-11-05T12:21:48.142Z,8.00
2022-11-05T12:24:18.292Z,7.13
2022-11-05T12:26:58.811Z,6.83
2022-11-05T12:30:09.948Z,5.50
2022-11-05T12:32:55.374Z,5.60
2022-11-05T12:35:33.186Z,5.90
2022-11-05T12:38:07.188Z,8.57
2022-11-05T12:40:56.566Z,4.20
2022-11-05T12:43:36.467Z,5.43
2022-11-05T12:46:47.251Z,8.73
2022-11-05T12:49:44.721Z,5.70
2022-11-05T12:52:28.206Z,3.47
2022-11-05T12:55:12.966Z,6.60
2022-11-05T12:57:44.614Z,4.20
2022-11-05T13:00:25.561Z,2.90
2022-11-05T13:03:49.809Z,4.23
2022-11-05T13:06:25.493Z,7.23
2022-11-05T13:09:28.671Z,5.13
2022-11-05T13:12:02.306Z,5.50
2022-11-05T13:15:01.244Z,6.03
2022-11-05T13:17:44.859Z,5.30
2022-11-05T13:20:26.340Z,4.43
2022-11-05T13:23:01.440Z,10.60
2022-11-05T13:25:38.447Z,7.60
2022-11-05T13:28:33.712Z,5.13
2022-11-05T13:31:05.428Z,7.00
2022-11-05T13:33:40.682Z,6.80
2022-11-05T13:36:41.730Z,6.27
2022-11-05T13:39:30.188Z,4.87
2022-11-05T13:42:36.404Z,2.97
2022-11-05T13:45:29.338Z,5.67
2022-11-05T13:48:27.559Z,2.77
2022-11-05T13:51:39.765Z,5.50
2022-11-05T13:54:37.380Z,6.87
2022-11-05T13:57:19.133Z,3.67
2022-11-05T14:00:11.592Z,5.27
2022-11-05T14:02:56.532Z,4.93
2022-11-05T14:05:45.942Z,4.10
2022-11-05T14:08:22.542Z,2.97
2022-11-05T14:11:19.122Z,4.03
2022-11-05T14:13:52.297Z,3.27
2022-11-05T14:16:29.583Z,5.67
2022-11-05T14:19:19.391Z,4.37
2022-11-05T14:21:52.056Z,9.23
2022-11-05T14:24:22.959Z,6.80
2022-11-05T14:27:02.781Z,6.47
2022-11-05T14:29:45.003Z,7.83
2022-11-05T14:32:19.332Z,7.07
2022-11-05T14:35:09.189Z,3.30
2022-11-05T14:37:42.295Z,4.93
2022-11-05T14:40:43.342Z,3.97
2022-11-05T14:43:26.973Z,6.57
2022-11-05T14:46:03.633Z,5.00
2022-11-05T14:48:40.470Z,3.20
2022-11-05T14:51:45.945Z,3.80
2022-11-05T14:54:45.522Z,4.67
2022-11-05T14:57:17.500Z,4.90
2022-11-05T15:00:07.119Z,4.03
2022-11-05T15:02:39.148Z,8.07
2022-11-05T15:05:47.643Z,3.37
2022-11-05T15:08:32.171Z,3.27
2022-11-05T15:11:39.732Z,4.83
2022-11-05T15:14:29.363Z,3.30
2022-11-05T15:17:20.169Z,6.43
2022-11-05T15:19:49.113Z,4.93
2022-11-05T15:22:31.762Z,3.17
2022-11-05T15:25:01.101Z,4.50
2022-11-05T15:27:50.135Z,4.67
2022-11-05T15:30:24.433Z,5.00
2022-11-05T15:32:53.475Z,5.63
2022-11-05T15:35:27.975Z,3.77
2022-11-05T15:38:02.231Z,4.90
2022-11-05T15:40:33.837Z,5.43
2022-11-05T15:43:20.673Z,6.23
2022-11-05T15:46:16.540Z,4.50
2022-11-05T15:48:58.231Z,4.67
2022-11-05T15:51:27.603Z,3.70
2022-11-05T15:54:24.425Z,6.47
2022-11-05T15:56:54.536Z,5.03
2022-11-05T15:59:26.021Z,9.97
2022-11-05T16:02:01.043Z,7.33
2022-11-05T16:04:33.503Z,6.63
2022-11-05T16:07:11.081Z,5.63
2022-11-05T16:09:43.727Z,9.67
2022-11-05T16:12:21.019Z,7.00
2022-11-05T16:15:02.200Z,6.80
2022-11-05T16:17:47.034Z,9.03
2022-11-05T16:20:33.214Z,9.90
2022-11-05T16:23:03.753Z,8.37
2022-11-05T16:25:44.274Z,5.80
2022-11-05T16:28:30.715Z,4.73
2022-11-05T16:31:06.678Z,9.13
2022-11-05T16:33:55.483Z,9.03
2022-11-05T16:36:24.509Z,6.87
2022-11-05T16:38:53.119Z,5.57
2022-11-05T16:41:23.928Z,5.43
2022-11-05T16:44:00.109Z,9.23
2022-11-05T16:46:30.551Z,5.50
2022-11-05T16:48:59.094Z,6.43
2022-11-05T16:51:29.620Z,5.93
2022-11-05T16:53:57.995Z,7.53
2022-11-05T16:56:26.497Z,9.30
2022-11-05T16:58:55.327Z,7.20
2022-11-05T17:01:24.908Z,10.73
2022-11-05T17:03:54.571Z,9.27
2022-11-05T17:06:23.670Z,10.07
2022-11-05T17:08:51.657Z,13.67
2022-11-05T17:11:22.133Z,12.43
2022-11-05T17:13:51.204Z,13.40
2022-11-05T17:16:19.738Z,12.83
2022-11-05T17:18:47.675Z,13.43
2022-11-05T17:21:16.140Z,13.47
2022-11-05T17:23:44.731Z,15.30
2022-11-05T17:26:14.316Z,19.27
2022-11-05T17:28:42.800Z,15.83
2022-11-05T17:31:14.342Z,20.03
2022-11-05T17:33:42.934Z,20.13
2022-11-05T17:36:15.338Z,20.03
2022-11-05T17:38:44.119Z,21.67
2022-11-05T17:41:14.545Z,15.97
2022-11-05T17:43:42.965Z,19.47
2022-11-05T17:46:15.144Z,16.73
2022-11-05T17:48:44.858Z,17.57
2022-11-05T17:51:16.118Z,19.57
2022-11-05T17:53:44.544Z,18.57
2022-11-05T17:56:32.238Z,18.37
2022-11-05T17:59:03.395Z,19.83
2022-11-05T18:01:35.724Z,18.40
2022-11-05T18:04:09.074Z,23.47
2022-11-05T18:06:45.952Z,19.07
2022-11-05T18:09:14.453Z,19.20
2022-11-05T18:11:43.367Z,15.73
2022-11-05T18:14:12.064Z,21.60
2022-11-05T18:16:40.447Z,19.57
2022-11-05T18:19:08.426Z,16.03
2022-11-05T18:21:36.371Z,18.13
2022-11-05T18:24:08.160Z,16.23
2022-11-05T18:26:36.418Z,18.83
2022-11-05T18:29:06.252Z,19.97
2022-11-05T18:31:34.892Z,19.10
2022-11-05T18:34:02.864Z,20.03
2022-11-05T18:36:33.150Z,20.13
2022-11-05T18:39:03.269Z,24.13
2022-11-05T18:41:32.430Z,18.80
2022-11-05T18:44:06.021Z,21.83
2022-11-05T18:49:24.763Z,18.50
2022-11-05T18:51:53.083Z,16.20
2022-11-05T18:54:22.084Z,19.30
2022-11-05T18:56:50.670Z,18.23
2022-11-05T18:59:38.793Z,15.90
2022-11-05T19:02:12.071Z,21.27
2022-11-05T19:04:55.076Z,21.70
2022-11-05T19:07:30.501Z,19.37
2022-11-05T19:09:58.888Z,20.00
2022-11-05T19:12:27.384Z,19.63
2022-11-05T19:15:01.945Z,18.47
2022-11-05T19:17:31.531Z,20.33
2022-11-05T19:19:59.882Z,23.20
2022-11-05T19:22:29.020Z,19.57
2022-11-05T19:24:57.121Z,18.77
2022-11-05T19:27:25.904Z,19.17
2022-11-05T19:29:54.313Z,17.40
2022-11-05T19:32:22.871Z,15.10
2022-11-05T19:34:51.351Z,15.40
2022-11-05T19:37:19.963Z,14.03
2022-11-05T19:39:48.011Z,15.40
2022-11-05T19:42:16.917Z,16.43
2022-11-05T19:44:45.284Z,12.63
2022-11-05T19:47:13.765Z,13.63
2022-11-05T19:49:42.089Z,13.23
2022-11-05T19:52:10.595Z,11.27
2022-11-05T19:54:39.119Z,12.90
2022-11-05T19:57:07.636Z,13.30
2022-11-05T19:59:35.912Z,12.23
2022-11-05T20:02:04.707Z,15.53
2022-11-05T20:04:33.410Z,16.77
2022-11-05T20:07:01.731Z,14.70
2022-11-05T20:09:30.094Z,16.80
2022-11-05T20:11:58.594Z,17.43
2022-11-05T20:14:27.572Z,18.33
2022-11-05T20:16:56.033Z,17.10
2022-11-05T20:19:24.908Z,19.60
2022-11-05T20:21:53.549Z,17.40
2022-11-05T20:24:25.188Z,19.07
2022-11-05T20:26:57.806Z,15.90
2022-11-05T20:29:33.915Z,15.53
2022-11-05T20:32:04.718Z,15.40
2022-11-05T20:34:34.690Z,16.00
2022-11-05T20:37:03.066Z,19.23
2022-11-05T20:39:31.692Z,14.07
2022-11-05T20:42:00.838Z,12.53
2022-11-05T20:44:29.414Z,13.07
2022-11-05T20:46:57.785Z,13.30
2022-11-05T20:49:26.324Z,13.90
2022-11-05T20:51:55.056Z,15.23
2022-11-05T20:54:23.714Z,16.10
2022-11-05T20:56:52.030Z,14.00
2022-11-05T20:59:20.725Z,15.10
2022-11-05T21:01:49.230Z,13.93
2022-11-05T21:04:17.714Z,15.23
2022-11-05T21:06:45.871Z,15.43
2022-11-05T21:09:13.988Z,18.70
2022-11-05T21:11:59.143Z,17.70
2022-11-05T21:14:27.806Z,17.90
2022-11-05T21:16:56.152Z,22.43
2022-11-05T21:19:24.983Z,18.80
2022-11-05T21:21:53.655Z,17.83
2022-11-05T21:24:22.448Z,17.03
2022-11-05T21:26:51.108Z,15.73
2022-11-05T21:29:19.845Z,15.93
2022-11-05T21:31:48.969Z,20.83
2022-11-05T21:34:18.963Z,16.30
2022-11-05T21:36:47.547Z,16.27
2022-11-05T21:39:15.951Z,17.40
2022-11-05T21:41:44.384Z,18.90
2022-11-05T21:44:12.796Z,16.03
2022-11-05T21:46:41.597Z,17.47
2022-11-05T21:49:10.342Z,13.77
2022-11-05T21:51:55.983Z,15.30
2022-11-05T21:54:41.724Z,12.37
2022-11-05T21:57:33.540Z,14.87
2022-11-05T22:00:02.097Z,17.30
2022-11-05T22:02:30.661Z,15.03
2022-11-05T22:05:00.339Z,13.90
2022-11-05T22:07:33.754Z,15.20
2022-11-05T22:10:03.160Z,14.20
2022-11-05T22:12:33.127Z,11.23
2022-11-05T22:15:01.624Z,12.13
2022-11-05T22:17:30.060Z,11.27
2022-11-05T22:19:58.514Z,13.73
2022-11-05T22:22:26.847Z,13.00
2022-11-05T22:24:55.222Z,13.27
2022-11-05T22:27:23.201Z,11.60
2022-11-05T22:29:51.613Z,16.17
2022-11-05T22:32:20.288Z,15.13
2022-11-05T22:34:49.816Z,9.97
2022-11-05T22:37:18.481Z,12.20
2022-11-05T22:39:46.843Z,13.77
2022-11-05T22:42:15.528Z,10.37
2022-11-05T22:44:43.960Z,12.63
2022-11-05T22:47:14.022Z,11.97
2022-11-05T22:49:42.100Z,12.97
2022-11-05T22:52:10.295Z,11.90
2022-11-05T22:54:39.555Z,11.40
2022-11-05T22:57:08.661Z,13.63
2022-11-05T22:59:37.105Z,9.97
2022-11-05T23:02:09.789Z,10.87
2022-11-05T23:04:38.719Z,14.07
2022-11-05T23:07:28.042Z,11.90
2022-11-05T23:10:13.960Z,11.37
2022-11-05T23:12:43.631Z,12.40
2022-11-05T23:15:33.667Z,9.90
2022-11-05T23:18:19.481Z,9.60
2022-11-05T23:21:04.670Z,10.53
2022-11-05T23:23:50.393Z,15.33
2022-11-05T23:26:36.305Z,10.43
2022-11-05T23:29:04.660Z,10.67
2022-11-05T23:31:50.362Z,9.83
2022-11-05T23:34:18.982Z,12.73
2022-11-05T23:37:04.677Z,8.30
2022-11-05T23:39:35.703Z,8.97
2022-11-05T23:42:24.061Z,10.50
2022-11-05T23:45:17.968Z,8.63
2022-11-05T23:48:03.752Z,15.90
2022-11-05T23:50:37.110Z,9.63
2022-11-05T23:53:07.608Z,9.33
2022-11-05T23:55:36.031Z,12.17
2022-11-05T23:58:04.660Z,9.93
